Time;durP1;ratioP1;P1;durP2;ratioP2;P2;SDS_P1;SDS_P2;PMS_P1;PMS_P2;Temp;Humidity;BMP_temperature;BMP_pressure;BME280_temperature;BME280_humidity;BME280_pressure;Samples;Min_cycle;Max_cycle;Signal;HPM_P1;HPM_P2
2022/11/07 00:01:01;;;;;;;;;;;;;;;13.71;100.00;100540.78;10061798;28;97664;-79
2022/11/07 00:06:04;;;;;;;11.32;7.70;;;;;;;13.72;100.00;100543.31;10062443;29;96850;-79
2022/11/07 00:11:09;;;;;;;13.02;6.38;;;;;;;13.69;100.00;100548.72;10060874;28;96723;-79
2022/11/07 00:16:12;;;;;;;10.27;6.60;;;;;;;13.66;100.00;100540.94;10061948;28;96977;-79
2022/11/07 00:21:15;;;;;;;10.80;6.72;;;;;;;13.54;100.00;100539.66;10061559;28;96676;-79
2022/11/07 00:26:20;;;;;;;11.77;6.57;;;;;;;13.55;100.00;100541.38;10061366;28;96707;-79
2022/11/07 00:31:23;;;;;;;11.52;6.45;;;;;;;13.52;100.00;100530.13;10060583;28;97241;-79
2022/11/07 00:36:28;;;;;;;11.18;6.57;;;;;;;13.53;100.00;100527.41;10061080;28;96793;-79
2022/11/07 00:41:33;;;;;;;9.98;6.50;;;;;;;13.51;100.00;100520.53;10060773;28;96852;-79
2022/11/07 00:46:37;;;;;;;8.73;6.47;;;;;;;13.50;100.00;100519.69;10061532;28;97028;-79
2022/11/07 00:51:40;;;;;;;9.70;6.97;;;;;;;13.49;100.00;100515.34;10060624;28;97405;-79
2022/11/07 00:56:44;;;;;;;11.10;5.78;;;;;;;13.48;100.00;100503.13;10060759;28;97530;-79
2022/11/07 01:01:47;;;;;;;7.75;6.05;;;;;;;13.41;100.00;100501.66;10058804;28;96855;-79
2022/11/07 01:06:51;;;;;;;8.13;5.82;;;;;;;13.34;100.00;100498.44;10060562;28;97135;-79
2022/11/07 01:11:55;;;;;;;7.20;5.28;;;;;;;13.30;100.00;100495.97;10059164;28;96634;-79
2022/11/07 01:16:59;;;;;;;8.60;5.43;;;;;;;13.28;100.00;100501.28;10059888;28;96871;-79
2022/11/07 01:22:02;;;;;;;10.95;5.43;;;;;;;13.26;100.00;100491.78;10059665;28;96892;-79
2022/11/07 01:27:06;;;;;;;7.43;4.63;;;;;;;13.18;100.00;100490.28;10059362;28;96829;-79
2022/11/07 01:32:09;;;;;;;8.30;4.93;;;;;;;13.22;100.00;100502.38;10059242;28;97041;-79
2022/11/07 01:37:13;;;;;;;9.60;4.60;;;;;;;13.18;100.00;100492.91;10059867;28;97767;-79
2022/11/07 01:42:17;;;;;;;6.82;4.57;;;;;;;13.04;100.00;100485.56;10058981;28;96917;-79
2022/11/07 01:47:23;;;;;;;10.13;4.40;;;;;;;12.99;100.00;100499.78;10059129;28;96716;-79
2022/11/07 01:52:31;;;;;;;10.90;5.15;;;;;;;12.95;100.00;100493.78;10057673;28;96667;-79
2022/11/07 01:57:39;;;;;;;8.05;4.38;;;;;;;12.98;100.00;100492.84;10058627;28;96729;-79
2022/11/07 02:02:44;;;;;;;8.80;5.10;;;;;;;12.99;100.00;100489.28;10058766;28;96899;-79
2022/11/07 02:07:47;;;;;;;10.73;5.13;;;;;;;13.00;100.00;100483.13;10058568;28;96750;-79
2022/11/07 02:12:52;;;;;;;5.95;4.50;;;;;;;13.00;100.00;100470.00;10058107;28;96853;-79
2022/11/07 02:17:57;;;;;;;7.30;4.22;;;;;;;12.94;100.00;100470.22;10057973;28;96562;-79
2022/11/07 02:23:07;;;;;;;7.05;4.25;;;;;;;12.91;100.00;100465.09;10058521;28;96787;-79
2022/11/07 02:28:13;;;;;;;8.23;4.47;;;;;;;12.90;100.00;100463.38;10058308;28;96756;-79
2022/11/07 02:33:18;;;;;;;8.85;4.32;;;;;;;12.89;100.00;100462.53;10057774;28;96672;-79
2022/11/07 02:38:24;;;;;;;7.53;4.30;;;;;;;12.88;100.00;100445.88;10057666;29;96786;-79
2022/11/07 02:43:31;;;;;;;6.95;4.40;;;;;;;12.82;100.00;100446.16;10056698;28;97298;-79
2022/11/07 02:48:44;;;;;;;8.82;4.68;;;;;;;12.75;100.00;100444.69;10057947;28;96835;-79
2022/11/07 02:53:47;;;;;;;6.60;4.40;;;;;;;12.71;100.00;100443.06;10057327;28;96961;-79
2022/11/07 02:58:52;;;;;;;7.03;4.45;;;;;;;12.70;100.00;100446.63;10056747;28;96714;-79
2022/11/07 03:03:55;;;;;;;9.75;5.15;;;;;;;12.65;100.00;100435.44;10057168;28;97522;-79
2022/11/07 03:08:59;;;;;;;9.63;6.03;;;;;;;12.64;100.00;100431.09;10056921;28;96833;-79
2022/11/07 03:14:04;;;;;;;9.63;5.60;;;;;;;12.64;100.00;100431.09;10056766;28;96851;-79
2022/11/07 03:19:07;;;;;;;8.35;6.35;;;;;;;12.61;100.00;100421.59;10057395;28;96800;-79
2022/11/07 03:24:10;;;;;;;8.07;5.70;;;;;;;12.58;100.00;100432.19;10056880;28;97253;-79
2022/11/07 03:29:15;;;;;;;11.10;5.82;;;;;;;12.60;100.00;100429.50;10056080;28;96838;-79
2022/11/07 03:34:18;;;;;;;8.95;5.70;;;;;;;12.62;100.00;100432.91;10059124;28;96886;-79
2022/11/07 03:39:21;;;;;;;10.57;6.60;;;;;;;12.60;100.00;100419.00;10062723;28;96775;-79
2022/11/07 03:44:29;;;;;;;8.52;5.88;;;;;;;12.65;100.00;100414.44;10062620;28;96788;-79
2022/11/07 03:49:32;;;;;;;12.77;5.93;;;;;;;12.67;100.00;100415.25;10062637;28;96724;-79
2022/11/07 03:54:35;;;;;;;6.75;5.53;;;;;;;12.67;100.00;100412.63;10062731;28;96620;-79
2022/11/07 03:59:40;;;;;;;8.35;5.85;;;;;;;12.66;100.00;100408.28;10062187;28;97074;-79
2022/11/07 04:04:43;;;;;;;8.95;5.50;;;;;;;12.65;100.00;100396.94;10062229;28;96597;-79
2022/11/07 04:09:46;;;;;;;10.80;5.78;;;;;;;12.58;100.00;100391.94;10062877;28;97026;-79
2022/11/07 04:20:12;;;;;;;10.63;6.20;;;;;;;12.53;100.00;100391.28;10061277;29;96920;-79
2022/11/07 04:25:15;;;;;;;7.70;5.25;;;;;;;12.54;100.00;100378.09;10060713;28;96666;-79
2022/11/07 04:30:22;;;;;;;9.02;5.05;;;;;;;12.55;100.00;100385.06;10060321;28;97679;-80
2022/11/07 04:35:27;;;;;;;9.10;5.50;;;;;;;12.54;100.00;100382.50;10061411;28;96629;-79
2022/11/07 04:40:30;;;;;;;;;;;;;;;12.46;100.00;100381.03;10061225;28;96722;-79
2022/11/07 04:45:35;;;;;;;7.55;4.82;;;;;;;12.46;100.00;100378.41;10060878;29;96843;-79
2022/11/07 04:50:39;;;;;;;11.18;5.25;;;;;;;12.49;100.00;100373.06;10061198;28;97260;-79
2022/11/07 04:55:43;;;;;;;7.15;4.85;;;;;;;12.52;100.00;100373.84;10060523;28;96895;-79
2022/11/07 05:00:47;;;;;;;10.93;5.25;;;;;;;12.55;100.00;100373.72;10060771;28;97326;-79
2022/11/07 05:05:50;;;;;;;6.72;4.97;;;;;;;12.56;100.00;100380.69;10060306;28;96879;-79
2022/11/07 05:10:54;;;;;;;7.38;4.47;;;;;;;12.58;100.00;100384.09;10059985;28;96702;-79
2022/11/07 05:15:58;;;;;;;8.95;4.88;;;;;;;12.63;100.00;100379.53;10058882;28;96677;-79
2022/11/07 05:21:01;;;;;;;5.60;4.13;;;;;;;12.64;100.00;100373.38;10059767;28;97158;-79
2022/11/07 05:26:05;;;;;;;7.45;4.40;;;;;;;12.60;100.00;100372.63;10059508;28;96628;-79
2022/11/07 05:31:15;;;;;;;7.97;5.05;;;;;;;12.58;100.00;100368.34;10059252;28;96757;-79
2022/11/07 05:36:20;;;;;;;6.50;4.53;;;;;;;12.57;100.00;100378.00;10059662;28;96739;-79
2022/11/07 05:41:24;;;;;;;8.13;4.50;;;;;;;12.57;100.00;100366.66;10059179;28;97221;-79
2022/11/07 05:46:28;;;;;;;8.07;4.70;;;;;;;12.57;100.00;100361.41;10059181;28;96590;-79
2022/11/07 05:51:31;;;;;;;6.68;4.47;;;;;;;12.58;100.00;100360.47;10059652;28;96717;-79
2022/11/07 05:56:36;;;;;;;6.10;4.35;;;;;;;12.61;100.00;100357.75;10058511;28;96741;-79
2022/11/07 06:01:40;;;;;;;7.75;4.65;;;;;;;12.59;100.00;100352.56;10058859;28;97253;-79
2022/11/07 06:06:44;;;;;;;5.85;4.20;;;;;;;12.56;100.00;100344.81;10057212;28;97729;-79
2022/11/07 06:11:47;;;;;;;5.80;4.05;;;;;;;12.53;100.00;100349.31;10058412;28;97571;-79
2022/11/07 06:16:52;;;;;;;8.13;4.38;;;;;;;12.53;100.00;100357.19;10057985;28;96762;-79
2022/11/07 06:21:55;;;;;;;11.07;4.60;;;;;;;12.55;100.00;100347.50;10058671;28;96897;-79
2022/11/07 06:26:58;;;;;;;6.60;4.25;;;;;;;12.53;100.00;100333.56;10057956;28;96867;-79
2022/11/07 06:32:02;;;;;;;5.53;4.07;;;;;;;12.54;100.00;100335.28;10057315;28;96774;-79
2022/11/07 06:37:06;;;;;;;5.55;3.90;;;;;;;12.50;100.00;100340.66;10057872;28;97184;-79
2022/11/07 06:42:09;;;;;;;6.72;4.38;;;;;;;12.52;100.00;100337.13;10058270;28;96907;-79
2022/11/07 06:47:14;;;;;;;7.40;4.40;;;;;;;12.48;100.00;100334.63;10057561;28;96843;-79
2022/11/07 06:52:17;;;;;;;6.68;4.25;;;;;;;12.47;100.00;100330.31;10057134;28;96860;-79
2022/11/07 06:57:20;;;;;;;7.13;4.40;;;;;;;12.48;100.00;100325.91;10056583;28;97237;-79
2022/11/07 07:02:25;;;;;;;5.63;4.00;;;;;;;12.48;100.00;100326.75;10056786;28;97133;-79
2022/11/07 07:07:48;;;;;;;4.63;3.83;;;;;;;12.45;100.00;100326.84;10058442;28;96735;-79
2022/11/07 07:12:51;;;;;;;8.90;4.28;;;;;;;12.47;100.00;100316.31;10063241;28;96883;-79
2022/11/07 07:17:59;;;;;;;5.75;3.90;;;;;;;12.40;100.00;100306.97;10064100;28;96866;-79
2022/11/07 07:23:02;;;;;;;5.88;4.50;;;;;;;12.33;100.00;100324.72;10062897;28;96700;-79
2022/11/07 07:28:17;;;;;;;;;;;;;;;12.30;100.00;100322.19;10063228;28;96847;-79
2022/11/07 07:33:21;;;;;;;5.70;4.10;;;;;;;12.35;100.00;100325.50;10064322;28;96639;-79
2022/11/07 07:38:25;;;;;;;5.85;3.63;;;;;;;12.40;100.00;100320.94;10063213;28;96804;-79
2022/11/07 07:43:29;;;;;;;6.35;3.88;;;;;;;12.43;100.00;100323.44;10062694;28;96813;-79
2022/11/07 07:48:34;;;;;;;5.10;3.70;;;;;;;12.46;100.00;100323.34;10061449;28;96922;-79
2022/11/07 07:53:36;;;;;;;;;;;;;;;12.42;100.00;100334.00;10062971;28;96707;-79
2022/11/07 07:58:40;;;;;;;4.38;3.20;;;;;;;12.54;100.00;100335.28;10062500;28;96918;-79
2022/11/07 08:03:44;;;;;;;5.80;4.15;;;;;;;12.61;100.00;100342.88;10062130;28;96757;-79
2022/11/07 08:09:03;;;;;;;7.95;3.67;;;;;;;12.69;100.00;100329.44;10062137;28;97125;-79
2022/11/07 08:14:06;;;;;;;5.45;3.53;;;;;;;12.81;100.00;100328.97;10062081;28;96577;-79
2022/11/07 08:19:11;;;;;;;4.45;3.72;;;;;;;13.00;100.00;100330.88;10061652;28;96799;-79
2022/11/07 08:24:14;;;;;;;6.40;3.60;;;;;;;13.26;100.00;100332.44;10062037;28;97000;-79
2022/11/07 08:29:17;;;;;;;7.13;4.18;;;;;;;13.46;100.00;100342.06;10060225;28;96926;-79
2022/11/07 08:34:22;;;;;;;7.15;3.90;;;;;;;13.65;100.00;100342.13;10061434;28;97636;-79
2022/11/07 08:39:25;;;;;;;;;;;;;;;13.63;100.00;100339.56;10060690;28;97610;-79
2022/11/07 08:44:31;;;;;;;6.80;3.95;;;;;;;13.85;100.00;100354.44;10060994;29;96662;-79
2022/11/07 08:49:35;;;;;;;7.95;3.95;;;;;;;13.94;100.00;100340.03;10060653;28;96710;-80
2022/11/07 08:54:39;;;;;;;6.10;3.67;;;;;;;14.03;100.00;100351.91;10060544;28;96859;-79
2022/11/07 08:59:42;;;;;;;6.35;3.65;;;;;;;14.10;100.00;100348.06;10060470;28;96926;-79
2022/11/07 09:04:46;;;;;;;6.95;3.55;;;;;;;14.10;100.00;100345.44;10060488;28;96902;-79
2022/11/07 09:09:50;;;;;;;6.82;3.83;;;;;;;14.13;100.00;100342.69;10060550;28;97964;-80
2022/11/07 09:14:53;;;;;;;9.77;4.10;;;;;;;14.06;100.00;100336.00;10060958;28;96914;-79
2022/11/07 09:19:57;;;;;;;6.72;4.38;;;;;;;13.99;100.00;100346.78;10059828;28;97049;-79
2022/11/07 09:25:00;;;;;;;7.25;4.85;;;;;;;13.99;100.00;100346.78;10060045;28;96922;-80
2022/11/07 09:30:04;;;;;;;9.07;4.85;;;;;;;14.04;100.00;100348.31;10057150;28;96950;-79
2022/11/07 09:35:10;;;;;;;7.50;5.23;;;;;;;14.09;100.00;100352.47;10059334;28;96852;-80
2022/11/07 09:40:23;;;;;;;7.90;5.28;;;;;;;14.17;100.00;100334.56;10059479;28;96737;-79
2022/11/07 09:45:30;;;;;;;9.77;5.57;;;;;;;14.25;100.00;100341.28;10058937;28;96766;-79
2022/11/07 09:50:40;;;;;;;10.57;5.25;;;;;;;14.32;100.00;100337.47;10058886;28;96855;-80
2022/11/07 09:55:50;;;;;;;8.18;5.68;;;;;;;14.45;100.00;100322.78;10059241;28;96860;-79
2022/11/07 10:00:57;;;;;;;9.45;5.95;;;;;;;14.64;100.00;100325.41;10058635;28;96778;-80
2022/11/07 10:06:10;;;;;;;7.82;4.82;;;;;;;14.64;100.00;100317.50;10059020;28;96825;-80
2022/11/07 10:11:22;;;;;;;9.27;6.22;;;;;;;14.63;100.00;100305.31;10058538;29;96735;-80
2022/11/07 10:16:35;;;;;;;7.93;5.53;;;;;;;14.73;100.00;100322.34;10058576;28;96859;-80
2022/11/07 10:21:47;;;;;;;9.02;6.85;;;;;;;14.90;100.00;100302.25;10057308;28;96674;-80
2022/11/07 10:26:51;;;;;;;8.48;6.57;;;;;;;14.88;100.00;100298.84;10057733;28;96931;-80
2022/11/07 10:32:00;;;;;;;9.63;7.15;;;;;;;14.93;100.00;100299.47;10057388;28;96815;-80
2022/11/07 10:37:05;;;;;;;8.32;5.82;;;;;;;15.08;100.00;100298.69;10057535;28;96804;-79
2022/11/07 10:42:11;;;;;;;9.85;5.75;;;;;;;15.03;100.00;100303.34;10060109;28;96660;-80
2022/11/07 10:47:16;;;;;;;8.95;6.07;;;;;;;15.06;100.00;100311.09;10064387;28;96805;-80
2022/11/07 10:52:20;;;;;;;9.40;6.05;;;;;;;15.04;100.00;100305.03;10064301;28;96792;-80
2022/11/07 10:57:23;;;;;;;;;;;;;;;14.90;100.00;100296.97;10065436;28;96714;-79
2022/11/07 11:02:30;;;;;;;29.73;18.98;;;;;;;14.75;100.00;100281.00;10063887;29;96938;-79
2022/11/07 11:07:36;;;;;;;11.70;8.10;;;;;;;14.56;100.00;100290.72;10063429;28;96832;-80
2022/11/07 11:12:45;;;;;;;10.60;7.80;;;;;;;14.44;100.00;100279.00;10062712;28;96739;-80
2022/11/07 11:17:59;;;;;;;9.63;6.63;;;;;;;14.33;100.00;100266.38;10063498;28;96630;-80
2022/11/07 11:23:06;;;;;;;10.90;7.88;;;;;;;14.35;100.00;100258.41;10063577;28;96965;-79
2022/11/07 11:28:15;;;;;;;15.48;10.82;;;;;;;14.42;100.00;100257.19;10062699;28;96790;-79
2022/11/07 11:33:23;;;;;;;13.52;9.45;;;;;;;14.52;100.00;100247.94;10062658;28;96936;-80
2022/11/07 11:38:31;;;;;;;27.05;18.45;;;;;;;14.68;100.00;100242.75;10063148;28;96920;-79
2022/11/07 11:43:43;;;;;;;13.85;10.80;;;;;;;14.84;100.00;100224.41;10062147;28;97298;-80
2022/11/07 11:48:50;;;;;;;22.88;12.82;;;;;;;15.06;100.00;100213.66;10062580;28;96850;-80
2022/11/07 11:53:55;;;;;;;17.33;10.18;;;;;;;15.12;100.00;100197.53;10061038;28;96729;-80
2022/11/07 11:59:16;;;;;;;15.05;9.85;;;;;;;15.18;100.00;100200.78;10061502;28;97468;-80
2022/11/07 12:04:50;;;;;;;13.55;8.77;;;;;;;15.18;100.00;100191.09;10061016;28;96774;-80
2022/11/07 12:09:59;;;;;;;9.45;6.38;;;;;;;15.23;100.00;100185.59;10057654;28;96937;-80
2022/11/07 12:15:30;;;;;;;11.68;8.75;;;;;;;15.34;100.00;100170.06;10062073;28;96809;-80
2022/11/07 12:20:41;;;;;;;11.10;6.97;;;;;;;15.41;100.00;100171.44;10061557;28;96813;-80
2022/11/07 12:25:53;;;;;;;9.20;6.28;;;;;;;15.79;100.00;100150.09;10061524;28;96781;-80
2022/11/07 12:31:04;;;;;;;8.23;5.65;;;;;;;16.40;100.00;100145.78;10061094;28;96859;-80
2022/11/07 12:36:15;;;;;;;10.50;6.75;;;;;;;16.46;100.00;100138.44;10061259;28;96779;-80
2022/11/07 12:41:30;;;;;;;10.43;6.00;;;;;;;16.49;100.00;100128.56;10061800;28;97165;-80
2022/11/07 12:46:45;;;;;;;25.05;18.70;;;;;;;16.64;100.00;100116.25;10060781;28;96808;-79
2022/11/07 12:51:58;;;;;;;9.88;6.05;;;;;;;16.81;100.00;100096.75;10060329;28;96927;-80
2022/11/07 12:57:07;;;;;;;7.43;5.40;;;;;;;16.62;100.00;100097.84;10059588;28;96809;-80
2022/11/07 13:02:24;;;;;;;4.97;2.90;;;;;;;16.88;100.00;100076.97;10060533;28;96835;-80
2022/11/07 13:07:37;;;;;;;8.30;5.20;;;;;;;16.91;100.00;100079.41;10059100;28;97013;-80
2022/11/07 13:12:46;;;;;;;7.18;4.30;;;;;;;16.81;100.00;100087.06;10059909;28;96830;-80
2022/11/07 13:17:50;;;;;;;8.20;5.47;;;;;;;16.70;100.00;100072.78;10059403;28;96812;-80
2022/11/07 13:22:54;;;;;;;9.00;5.47;;;;;;;16.77;100.00;100068.84;10060056;28;96679;-79
2022/11/07 13:28:22;;;;;;;7.15;3.92;;;;;;;17.61;100.00;100054.78;10059339;28;96857;-80
2022/11/07 13:33:27;;;;;;;5.68;3.58;;;;;;;17.60;100.00;100047.81;10060290;29;97384;-80
2022/11/07 13:38:32;;;;;;;6.88;3.83;;;;;;;17.57;100.00;100058.59;10059472;28;96721;-80
2022/11/07 13:43:40;;;;;;;6.53;3.65;;;;;;;17.45;100.00;100051.44;10059275;29;96802;-80
2022/11/07 13:48:48;;;;;;;4.78;3.30;;;;;;;17.71;100.00;100042.66;10058258;28;96794;-80
2022/11/07 13:54:07;;;;;;;5.38;2.65;;;;;;;17.76;100.00;100035.28;10059210;28;96839;-79
2022/11/07 13:59:20;;;;;;;4.53;3.17;;;;;;;17.71;100.00;100034.72;10058095;28;96875;-80
2022/11/07 14:04:27;;;;;;;4.75;2.72;;;;;;;17.65;100.00;100024.56;10058712;28;96645;-80
2022/11/07 14:09:31;;;;;;;3.85;2.70;;;;;;;17.72;100.00;100020.56;10057878;28;98367;-80
2022/11/07 14:14:36;;;;;;;5.50;2.90;;;;;;;18.10;100.00;100004.00;10058284;28;97038;-80
2022/11/07 14:19:39;;;;;;;6.28;3.13;;;;;;;18.64;100.00;99996.81;10057860;28;96786;-80
2022/11/07 14:24:51;;;;;;;4.55;2.60;;;;;;;18.72;100.00;99989.16;10058968;28;96717;-80
2022/11/07 14:29:59;;;;;;;5.32;2.42;;;;;;;18.31;100.00;99969.09;10057737;28;96854;-80
2022/11/07 14:35:08;;;;;;;5.45;1.90;;;;;;;17.90;100.00;99957.69;10058239;28;97007;-80
2022/11/07 14:40:12;;;;;;;3.45;2.17;;;;;;;17.79;100.00;99952.25;10057074;28;96761;-80
2022/11/07 14:45:19;;;;;;;2.40;1.67;;;;;;;17.72;100.00;99928.03;10057417;28;96904;-80
2022/11/07 14:50:45;;;;;;;3.47;1.48;;;;;;;17.59;100.00;99919.19;10057458;28;96710;-80
2022/11/07 14:55:52;;;;;;;3.22;1.65;;;;;;;17.19;100.00;99905.97;10057209;28;96893;-80
2022/11/07 15:00:59;;;;;;;5.82;2.80;;;;;;;17.04;100.00;99912.25;10057340;28;96702;-80
2022/11/07 15:06:03;;;;;;;4.32;2.17;;;;;;;17.04;100.00;99901.69;10057313;28;97022;-80
2022/11/07 15:11:21;;;;;;;5.03;3.78;;;;;;;16.90;100.00;99903.44;10057309;28;97071;-80
2022/11/07 15:16:31;;;;;;;5.43;3.45;;;;;;;16.88;100.00;99900.00;10057724;28;96949;-80
2022/11/07 15:21:36;;;;;;;5.20;3.78;;;;;;;16.82;100.00;99892.50;10056766;28;96689;-80
2022/11/07 15:26:40;;;;;;;7.82;3.80;;;;;;;16.72;100.00;99896.63;10056474;29;97328;-80
2022/11/07 15:31:48;;;;;;;5.30;4.10;;;;;;;16.73;100.00;99893.06;10060519;28;96613;-80
2022/11/07 15:36:52;;;;;;;7.70;4.32;;;;;;;16.94;100.00;99896.16;10063248;28;96579;-80
2022/11/07 15:41:55;;;;;;;8.15;4.20;;;;;;;17.06;100.00;99883.94;10062996;28;96709;-79
2022/11/07 15:47:00;;;;;;;4.38;2.67;;;;;;;16.87;100.00;99866.66;10062697;28;96685;-80
2022/11/07 15:52:04;;;;;;;6.88;4.88;;;;;;;16.75;100.00;99872.72;10062677;28;96809;-80
2022/11/07 15:57:08;;;;;;;7.95;5.57;;;;;;;16.83;100.00;99875.69;10062922;28;96801;-80
2022/11/07 16:02:16;;;;;;;9.40;6.23;;;;;;;16.90;100.00;99879.66;10062609;29;97175;-80
2022/11/07 16:07:20;;;;;;;4.65;3.00;;;;;;;16.88;100.00;99876.25;10062904;28;97014;-80
2022/11/07 16:12:23;;;;;;;5.03;3.25;;;;;;;16.82;100.00;99879.28;10061670;28;96828;-80
2022/11/07 16:17:28;;;;;;;4.90;3.10;;;;;;;16.78;100.00;99870.72;10062132;28;96729;-80
2022/11/07 16:22:31;;;;;;;;;;;;;;;16.69;100.00;99873.06;10061349;28;96828;-80
2022/11/07 16:27:34;;;;;;;7.22;4.15;;;;;;;16.58;100.00;99861.38;10061160;29;96701;-79
2022/11/07 16:32:39;;;;;;;7.80;4.68;;;;;;;16.34;100.00;99855.00;10061271;28;96876;-80
2022/11/07 16:37:42;;;;;;;;;;;;;;;16.10;100.00;99852.94;10061901;28;96611;-80
2022/11/07 16:42:46;;;;;;;5.38;3.20;;;;;;;16.05;100.00;99857.66;10061527;28;96632;-80
2022/11/07 16:47:50;;;;;;;5.67;3.60;;;;;;;16.07;100.00;99845.25;10060521;28;96775;-80
2022/11/07 16:52:53;;;;;;;;;;;;;;;16.05;100.00;99849.72;10061431;28;96621;-79
2022/11/07 16:57:57;;;;;;;6.25;3.17;;;;;;;16.05;100.00;99832.16;10061537;29;96735;-79
2022/11/07 17:03:02;;;;;;;4.25;2.60;;;;;;;16.08;100.00;99832.88;10060209;28;96714;-80
2022/11/07 17:08:15;;;;;;;4.07;2.70;;;;;;;16.04;100.00;99842.78;10060345;28;96799;-80
2022/11/07 17:13:21;;;;;;;6.93;3.17;;;;;;;15.96;100.00;99830.06;10058899;28;96825;-80
2022/11/07 17:18:27;;;;;;;5.10;2.25;;;;;;;15.97;100.00;99830.91;10060070;28;96648;-80
2022/11/07 17:23:30;;;;;;;5.45;2.83;;;;;;;15.92;100.00;99817.16;10059683;28;96713;-80
2022/11/07 17:28:34;;;;;;;5.68;3.40;;;;;;;15.84;100.00;99807.94;10059435;29;96750;-80
2022/11/07 17:33:39;;;;;;;4.60;2.10;;;;;;;15.78;100.00;99816.22;10059880;28;96830;-80
2022/11/07 17:38:42;;;;;;;;;;;;;;;15.74;100.00;99819.97;10059960;28;96687;-80
2022/11/07 17:43:47;;;;;;;7.60;2.92;;;;;;;15.67;100.00;99818.66;10059473;29;96655;-79
2022/11/07 17:48:52;;;;;;;4.63;3.35;;;;;;;15.61;100.00;99813.75;10059396;28;96748;-80
2022/11/07 17:53:56;;;;;;;4.32;2.42;;;;;;;15.61;100.00;99822.50;10058335;28;96734;-80
2022/11/07 17:59:01;;;;;;;;;;;;;;;15.63;100.00;99822.41;10059153;28;96844;-80
2022/11/07 18:04:08;;;;;;;6.43;3.65;;;;;;;15.68;100.00;99825.59;10057658;28;96636;-79
2022/11/07 18:09:15;;;;;;;3.60;2.17;;;;;;;15.71;100.00;99829.88;10058606;29;97053;-80
2022/11/07 18:14:18;;;;;;;4.65;2.50;;;;;;;15.73;100.00;99820.91;10058795;28;96938;-80
2022/11/07 18:19:23;;;;;;;6.30;3.22;;;;;;;15.78;100.00;99820.66;10058346;28;96551;-80
2022/11/07 18:24:26;;;;;;;;;;;;;;;15.80;100.00;99832.78;10058989;28;96815;-80
2022/11/07 18:29:29;;;;;;;5.13;3.22;;;;;;;15.84;100.00;99820.25;10057283;29;96808;-80
2022/11/07 18:34:34;;;;;;;5.10;3.05;;;;;;;15.77;100.00;99830.34;10057935;28;96686;-80
2022/11/07 18:39:37;;;;;;;6.07;2.83;;;;;;;15.77;100.00;99824.22;10058646;28;96798;-80
2022/11/07 18:44:41;;;;;;;4.68;2.50;;;;;;;15.77;100.00;99825.06;10057168;28;96796;-80
2022/11/07 18:49:45;;;;;;;4.55;2.55;;;;;;;15.81;100.00;99836.28;10057354;28;96690;-80
2022/11/07 18:54:48;;;;;;;;;;;;;;;15.78;100.00;99825.91;10057035;28;96682;-80
2022/11/07 18:59:52;;;;;;;4.03;2.10;;;;;;;15.87;100.00;99814.81;10057630;29;96885;-80
2022/11/07 19:04:56;;;;;;;3.15;2.10;;;;;;;15.93;100.00;99818.84;10061906;28;96636;-80
2022/11/07 19:09:59;;;;;;;;;;;;;;;15.93;100.00;99805.66;10063984;28;96837;-80
2022/11/07 19:15:02;;;;;;;3.17;2.00;;;;;;;15.92;100.00;99817.16;10064262;28;96755;-80
2022/11/07 19:20:09;;;;;;;3.75;2.10;;;;;;;15.88;100.00;99811.25;10063471;28;97188;-80
2022/11/07 19:25:17;;;;;;;2.95;1.92;;;;;;;15.91;100.00;99810.19;10063645;28;96920;-80
2022/11/07 19:30:21;;;;;;;5.65;2.50;;;;;;;15.84;100.00;99823.75;10063263;28;97132;-80
2022/11/07 19:35:25;;;;;;;5.00;2.60;;;;;;;15.78;100.00;99818.84;10063069;28;96648;-80
2022/11/07 19:40:28;;;;;;;;;;;;;;;15.79;100.00;99806.50;10063826;28;97130;-80
2022/11/07 19:45:32;;;;;;;3.47;1.88;;;;;;;15.83;100.00;99814.13;10062073;29;96712;-80
2022/11/07 19:50:37;;;;;;;3.47;1.70;;;;;;;15.88;100.00;99816.50;10062651;29;96599;-80
2022/11/07 19:55:40;;;;;;;1.70;1.58;;;;;;;15.95;100.00;99819.63;10062865;28;97111;-80
2022/11/07 20:00:44;;;;;;;3.72;1.80;;;;;;;15.98;100.00;99799.19;10062426;28;96857;-80
2022/11/07 20:05:50;;;;;;;3.70;1.95;;;;;;;15.99;100.00;99807.94;10062405;28;96705;-80
2022/11/07 20:10:53;;;;;;;1.90;1.63;;;;;;;15.95;100.00;99802.00;10062361;28;96994;-80
2022/11/07 20:15:57;;;;;;;5.07;1.77;;;;;;;15.97;100.00;99800.13;10061706;28;96667;-80
2022/11/07 20:21:03;;;;;;;4.65;2.53;;;;;;;15.90;100.00;99787.41;10062836;28;97559;-80
2022/11/07 20:26:08;;;;;;;4.50;1.88;;;;;;;15.78;100.00;99805.66;10061853;28;96668;-80
2022/11/07 20:31:12;;;;;;;2.25;1.75;;;;;;;15.83;100.00;99811.50;10060943;28;97531;-80
2022/11/07 20:36:18;;;;;;;3.97;1.70;;;;;;;15.90;100.00;99792.69;10060475;28;97221;-80
2022/11/07 20:41:22;;;;;;;2.28;1.60;;;;;;;15.88;100.00;99795.41;10061437;28;96696;-80
2022/11/07 20:46:25;;;;;;;4.20;2.07;;;;;;;15.82;100.00;99801.06;10061312;28;96959;-80
2022/11/07 20:51:30;;;;;;;3.88;2.05;;;;;;;15.72;100.00;99795.50;10061020;29;96630;-80
2022/11/07 20:56:34;;;;;;;2.78;1.70;;;;;;;15.64;100.00;99801.22;10060389;28;96810;-80
2022/11/07 21:01:37;;;;;;;4.13;2.00;;;;;;;15.59;100.00;99794.53;10060568;28;96809;-80
2022/11/07 21:06:42;;;;;;;4.32;2.05;;;;;;;15.54;100.00;99797.41;10060311;28;96789;-80
2022/11/07 21:11:46;;;;;;;2.90;1.88;;;;;;;15.55;100.00;99793.84;10061018;28;96792;-80
2022/11/07 21:16:49;;;;;;;4.05;2.00;;;;;;;15.57;100.00;99791.13;10060363;28;96896;-80
2022/11/07 21:21:53;;;;;;;2.97;1.40;;;;;;;15.61;100.00;99787.38;10060181;28;96874;-80
2022/11/07 21:26:56;;;;;;;;;;;;;;;15.64;100.00;99776.66;10058329;28;96766;-80
2022/11/07 21:32:01;;;;;;;3.80;1.55;;;;;;;15.77;100.00;99755.66;10059493;29;97167;-80
2022/11/07 21:37:06;;;;;;;2.03;1.25;;;;;;;15.79;100.00;99762.56;10059510;28;96840;-80
2022/11/07 21:42:11;;;;;;;3.63;1.40;;;;;;;15.81;100.00;99768.56;10059737;28;96709;-80
2022/11/07 21:47:14;;;;;;;;;;;;;;;15.81;100.00;99786.19;10059866;28;96600;-80
2022/11/07 21:52:19;;;;;;;2.63;1.50;;;;;;;15.81;100.00;99794.09;10059200;29;96777;-80
2022/11/07 21:57:22;;;;;;;3.17;1.63;;;;;;;15.85;100.00;99808.78;10059136;28;96749;-81
2022/11/07 22:02:25;;;;;;;6.07;1.75;;;;;;;15.82;100.00;99807.16;10059465;28;96984;-78
2022/11/07 22:07:33;;;;;;;2.55;1.50;;;;;;;15.68;100.00;99802.72;10058537;28;96682;-80
2022/11/07 22:12:37;;;;;;;4.18;1.30;;;;;;;15.63;100.00;99791.66;10058499;28;96722;-81
2022/11/07 22:17:40;;;;;;;3.22;1.20;;;;;;;15.67;100.00;99787.88;10057212;28;96928;-81
2022/11/07 22:22:44;;;;;;;1.52;1.13;;;;;;;15.65;100.00;99779.22;10058571;28;96797;-81
2022/11/07 22:27:47;;;;;;;;;;;;;;;15.55;100.00;99792.97;10058309;28;96927;-81
2022/11/07 22:32:51;;;;;;;1.80;1.15;;;;;;;15.52;100.00;99798.47;10057678;28;97791;-81
2022/11/07 22:37:56;;;;;;;3.60;1.30;;;;;;;15.58;100.00;99788.44;10057581;28;96737;-81
2022/11/07 22:42:59;;;;;;;;;;;;;;;15.62;100.00;99792.56;10058409;29;96612;-81
2022/11/07 22:48:02;;;;;;;5.78;1.05;;;;;;;15.67;100.00;99794.94;10057805;29;96784;-81
2022/11/07 22:53:06;;;;;;;2.45;1.10;;;;;;;15.69;100.00;99796.53;10058169;28;96862;-81
2022/11/07 22:58:10;;;;;;;2.13;1.38;;;;;;;15.74;100.00;99780.44;10057307;28;96822;-80
2022/11/07 23:03:13;;;;;;;1.90;1.00;;;;;;;15.71;100.00;99772.72;10057320;28;96809;-80
2022/11/07 23:08:18;;;;;;;2.50;1.23;;;;;;;15.79;100.00;99770.47;10056126;28;96572;-80
2022/11/07 23:13:22;;;;;;;2.70;1.00;;;;;;;15.92;100.00;99774.97;10057176;28;96813;-80
2022/11/07 23:18:25;;;;;;;2.05;1.10;;;;;;;15.98;100.00;99766.66;10056806;28;96636;-80
2022/11/07 23:23:30;;;;;;;3.25;1.00;;;;;;;16.02;100.00;99760.28;10056949;28;96695;-80